createdAt,value
2024-04-21T00:00:56.112Z,1.7425
2024-04-21T00:01:58.338Z,1.7229
2024-04-21T00:03:00.822Z,1.7488
2024-04-21T00:04:03.200Z,1.7783
2024-04-21T00:05:05.674Z,1.7951
2024-04-21T00:06:07.910Z,1.7947
2024-04-21T00:07:10.209Z,1.7995
2024-04-21T00:08:12.490Z,1.7905
2024-04-21T00:09:15.036Z,1.7980
2024-04-21T00:10:17.322Z,1.8116
2024-04-21T00:11:19.612Z,1.8179
2024-04-21T00:12:21.806Z,1.8147
2024-04-21T00:13:24.044Z,1.8093
2024-04-21T00:14:26.228Z,1.8023
2024-04-21T00:15:28.450Z,1.7961
2024-04-21T00:16:30.760Z,1.7976
2024-04-21T00:17:33.031Z,1.8025
2024-04-21T00:18:35.628Z,1.7961
2024-04-21T00:19:37.775Z,1.8009
2024-04-21T00:20:40.005Z,1.7983
2024-04-21T00:21:42.565Z,1.7830
2024-04-21T00:22:44.778Z,1.7720
2024-04-21T00:23:46.957Z,1.7605
2024-04-21T00:24:49.449Z,1.7651
2024-04-21T00:25:51.629Z,1.7493
2024-04-21T00:26:53.876Z,1.7475
2024-04-21T00:27:56.107Z,1.7446
2024-04-21T00:28:58.315Z,1.7318
2024-04-21T00:30:00.627Z,1.7174
2024-04-21T00:31:03.438Z,1.7203
2024-04-21T00:32:05.660Z,1.7185
2024-04-21T00:33:07.989Z,1.7248
2024-04-21T00:34:10.704Z,1.7447
2024-04-21T00:35:13.135Z,1.7506
2024-04-21T00:36:15.381Z,1.7690
2024-04-21T00:37:17.601Z,1.7632
2024-04-21T00:38:19.830Z,1.7547
2024-04-21T00:39:22.113Z,1.7637
2024-04-21T00:40:25.153Z,1.7795
2024-04-21T00:41:27.766Z,1.8036
2024-04-21T00:42:29.952Z,1.8185
2024-04-21T00:43:32.158Z,1.8229
2024-04-21T00:44:34.333Z,1.8514
2024-04-21T00:45:37.920Z,1.8823
2024-04-21T00:46:37.582Z,1.8926
2024-04-21T00:47:39.850Z,1.9029
2024-04-21T00:48:42.009Z,1.9296
2024-04-21T00:49:42.043Z,1.9382
2024-04-21T00:50:44.234Z,1.9415
2024-04-21T00:51:46.820Z,1.9490
2024-04-21T00:52:49.351Z,1.9584
2024-04-21T00:53:51.560Z,1.9507
2024-04-21T00:54:54.201Z,1.9552
2024-04-21T00:55:56.683Z,1.9481
2024-04-21T00:56:59.302Z,1.9417
2024-04-21T00:58:01.894Z,1.9383
2024-04-21T00:59:04.079Z,1.9515
2024-04-21T01:00:06.353Z,1.9595
2024-04-21T01:01:08.720Z,1.9638
2024-04-21T01:02:11.136Z,1.9651
2024-04-21T01:03:13.423Z,1.9735
2024-04-21T01:04:15.660Z,1.9847
2024-04-21T01:05:18.175Z,2.0044
2024-04-21T01:06:20.915Z,2.0118
2024-04-21T01:07:21.217Z,2.0007
2024-04-21T01:08:23.451Z,1.9985
2024-04-21T01:09:24.829Z,1.9888
2024-04-21T01:10:25.585Z,1.9952
2024-04-21T01:11:27.748Z,2.0136
2024-04-21T01:12:30.549Z,2.0413
2024-04-21T01:13:33.011Z,2.0494
2024-04-21T01:14:35.178Z,2.0523
2024-04-21T01:15:38.783Z,2.0587
2024-04-21T01:16:38.252Z,2.0595
2024-04-21T01:17:40.565Z,2.0606
2024-04-21T01:18:42.862Z,2.0698
2024-04-21T01:19:45.129Z,2.0672
2024-04-21T01:20:47.709Z,2.0774
2024-04-21T01:21:49.892Z,2.0924
2024-04-21T01:22:50.916Z,2.0985
2024-04-21T01:23:53.122Z,2.1010
2024-04-21T01:24:55.720Z,2.1061
2024-04-21T01:25:57.916Z,2.1135
2024-04-21T01:27:00.076Z,2.1167
2024-04-21T01:28:02.635Z,2.1160
2024-04-21T01:29:04.905Z,2.1121
2024-04-21T01:30:07.371Z,2.1208
2024-04-21T01:31:07.633Z,2.1200
2024-04-21T01:32:10.241Z,2.1225
2024-04-21T01:33:12.417Z,2.1122
2024-04-21T01:34:15.048Z,2.1092
2024-04-21T01:35:17.186Z,2.1075
2024-04-21T01:36:20.047Z,2.1177
2024-04-21T01:37:22.632Z,2.1271
2024-04-21T01:38:25.167Z,2.1174
2024-04-21T01:39:27.320Z,2.1172
2024-04-21T01:40:29.554Z,2.1098
2024-04-21T01:41:32.366Z,2.1094
2024-04-21T01:42:34.468Z,2.1056
2024-04-21T01:43:37.315Z,2.0986
2024-04-21T01:44:37.615Z,2.1037
2024-04-21T01:45:37.623Z,2.1057
2024-04-21T01:46:39.982Z,2.1153
2024-04-21T01:47:40.904Z,2.1226
2024-04-21T01:48:41.507Z,2.1346
2024-04-21T01:49:42.221Z,2.1463
2024-04-21T01:50:44.842Z,2.1556
2024-04-21T01:51:47.465Z,2.1655
2024-04-21T01:52:49.726Z,2.1712
2024-04-21T01:53:50.055Z,2.1808
2024-04-21T01:54:52.612Z,2.1860
2024-04-21T01:55:54.769Z,2.1909
2024-04-21T01:56:54.965Z,2.1947
2024-04-21T01:57:57.202Z,2.2059
2024-04-21T01:58:57.511Z,2.2200
2024-04-21T01:59:59.708Z,2.2362
2024-04-21T02:01:02.387Z,2.2342
2024-04-21T02:02:03.118Z,2.2556
2024-04-21T02:03:05.671Z,2.2695
2024-04-21T02:04:08.458Z,2.2713
2024-04-21T02:05:10.805Z,2.2956
2024-04-21T02:06:11.065Z,2.3134
2024-04-21T02:07:13.781Z,2.3234
2024-04-21T02:08:16.078Z,2.3445
2024-04-21T02:09:18.734Z,2.3524
2024-04-21T02:10:21.363Z,2.3612
2024-04-21T02:11:23.689Z,2.3531
2024-04-21T02:12:25.930Z,2.3593
2024-04-21T02:13:26.198Z,2.3536
2024-04-21T02:14:29.342Z,2.3588
2024-04-21T02:15:31.640Z,2.3714
2024-04-21T02:16:34.264Z,2.3700
2024-04-21T02:17:36.976Z,2.3580
2024-04-21T02:18:39.474Z,2.3545
2024-04-21T02:19:41.716Z,2.3603
2024-04-21T02:20:41.982Z,2.3599
2024-04-21T02:21:44.285Z,2.3624
2024-04-21T02:22:46.491Z,2.3569
2024-04-21T02:23:48.832Z,2.3594
2024-04-21T02:24:51.473Z,2.3616
2024-04-21T02:25:54.101Z,2.3509
2024-04-21T02:26:56.578Z,2.3580
2024-04-21T02:27:59.205Z,2.3650
2024-04-21T02:29:02.045Z,2.3704
2024-04-21T02:30:03.203Z,2.3850
2024-04-21T02:31:06.205Z,2.3898
2024-04-21T02:32:06.945Z,2.3905
2024-04-21T02:33:07.692Z,2.3890
2024-04-21T02:34:10.682Z,2.3892
2024-04-21T02:35:12.289Z,2.3898
2024-04-21T02:36:12.932Z,2.3926
2024-04-21T02:37:15.555Z,2.4023
2024-04-21T02:38:15.852Z,2.4049
2024-04-21T02:39:18.070Z,2.4085
2024-04-21T02:40:21.797Z,2.4084
2024-04-21T02:41:22.501Z,2.4185
2024-04-21T02:42:22.574Z,2.4205
2024-04-21T02:43:22.862Z,2.4177
2024-04-21T02:44:25.383Z,2.4177
2024-04-21T02:45:27.980Z,2.4144
2024-04-21T02:46:30.576Z,2.4197
2024-04-21T02:47:33.390Z,2.4271
2024-04-21T02:48:35.666Z,2.4324
2024-04-21T02:49:37.831Z,2.4258
2024-04-21T02:50:40.109Z,2.4236
2024-04-21T02:51:40.097Z,2.4289
2024-04-21T02:52:42.544Z,2.4334
2024-04-21T02:53:45.900Z,2.4445
2024-04-21T02:54:45.530Z,2.4622
2024-04-21T02:55:48.167Z,2.4680
2024-04-21T02:56:50.711Z,2.4613
2024-04-21T02:57:53.251Z,2.4564
2024-04-21T02:58:55.460Z,2.4506
2024-04-21T02:59:57.633Z,2.4523
2024-04-21T03:01:00.027Z,2.4512
2024-04-21T03:02:02.198Z,2.4211
2024-04-21T03:03:04.816Z,2.4219
2024-04-21T03:04:07.126Z,2.4334
2024-04-21T03:05:09.321Z,2.4459
2024-04-21T03:06:11.934Z,2.4184
2024-04-21T03:07:14.602Z,2.4043
2024-04-21T03:08:17.348Z,2.4074
2024-04-21T03:09:20.178Z,2.3748
2024-04-21T03:10:20.445Z,2.3643
2024-04-21T03:11:22.859Z,2.3573
2024-04-21T03:12:25.627Z,2.3606
2024-04-21T03:13:28.147Z,2.3448
2024-04-21T03:14:30.950Z,2.3404
2024-04-21T03:15:33.275Z,2.3442
2024-04-21T03:16:34.940Z,2.3377
2024-04-21T03:17:35.342Z,2.3302
2024-04-21T03:18:37.989Z,2.3390
2024-04-21T03:19:39.224Z,2.3380
2024-04-21T03:20:41.726Z,2.3217
2024-04-21T03:21:42.405Z,2.3213
2024-04-21T03:22:42.722Z,2.3122
2024-04-21T03:23:45.077Z,2.3063
2024-04-21T03:24:47.601Z,2.3064
2024-04-21T03:25:50.124Z,2.3255
2024-04-21T03:26:52.766Z,2.3311
2024-04-21T03:27:55.616Z,2.3415
2024-04-21T03:28:58.406Z,2.3369
2024-04-21T03:30:00.615Z,2.3014
2024-04-21T03:31:03.259Z,2.2807
2024-04-21T03:32:03.356Z,2.2647
2024-04-21T03:33:05.966Z,2.2539
2024-04-21T03:34:07.050Z,2.2200
2024-04-21T03:35:07.918Z,2.1985
2024-04-21T03:36:07.878Z,2.1736
2024-04-21T03:37:10.690Z,2.1617
2024-04-21T03:38:10.762Z,2.1415
2024-04-21T03:39:11.135Z,2.1181
2024-04-21T03:40:14.036Z,2.0821
2024-04-21T03:41:16.454Z,2.0447
2024-04-21T03:42:19.227Z,2.0305
2024-04-21T03:43:21.784Z,2.0317
2024-04-21T03:44:24.273Z,2.0075
2024-04-21T03:45:26.466Z,1.9924
2024-04-21T03:46:29.236Z,1.9891
2024-04-21T03:47:32.232Z,1.9851
2024-04-21T03:48:34.472Z,1.9904
2024-04-21T03:49:37.467Z,1.9952
2024-04-21T03:50:38.025Z,1.9975
2024-04-21T03:51:40.892Z,2.0090
2024-04-21T03:52:41.298Z,2.0330
2024-04-21T03:53:43.380Z,2.0357
2024-04-21T03:54:45.584Z,2.0371
2024-04-21T03:55:46.084Z,2.0370
2024-04-21T03:56:48.496Z,2.0685
2024-04-21T03:57:51.338Z,2.0940
2024-04-21T03:58:53.982Z,2.0963
2024-04-21T03:59:56.477Z,2.0849
2024-04-21T04:00:57.045Z,2.0795
2024-04-21T04:01:57.213Z,2.0679
2024-04-21T04:02:59.884Z,2.0592
2024-04-21T04:04:02.518Z,2.0567
2024-04-21T04:05:05.500Z,2.0572
2024-04-21T04:06:07.730Z,2.0567
2024-04-21T04:07:11.349Z,2.0489
2024-04-21T04:08:11.794Z,2.0210
2024-04-21T04:09:14.222Z,1.9852
2024-04-21T04:10:17.218Z,1.9637
2024-04-21T04:11:19.400Z,1.9392
2024-04-21T04:12:23.320Z,1.9290
2024-04-21T04:13:26.267Z,1.9225
2024-04-21T04:14:28.808Z,1.9066
2024-04-21T04:15:30.955Z,1.9225
2024-04-21T04:16:31.460Z,1.9197
2024-04-21T04:17:34.131Z,1.9070
2024-04-21T04:18:34.532Z,1.9047
2024-04-21T04:19:34.791Z,1.8954
2024-04-21T04:20:38.604Z,1.8855
2024-04-21T04:21:38.632Z,1.8954
2024-04-21T04:22:40.882Z,1.9018
2024-04-21T04:23:43.426Z,1.9008
2024-04-21T04:24:45.977Z,1.9085
2024-04-21T04:25:48.931Z,1.9037
2024-04-21T04:26:51.448Z,1.9099
2024-04-21T04:27:54.121Z,1.9102
2024-04-21T04:28:55.302Z,1.9161
2024-04-21T04:29:56.213Z,1.9392
2024-04-21T04:30:58.546Z,1.9367
2024-04-21T04:32:00.913Z,1.9481
2024-04-21T04:33:02.232Z,1.9587
2024-04-21T04:34:04.615Z,1.9643
2024-04-21T04:35:07.129Z,1.9664
2024-04-21T04:36:09.099Z,1.9716
2024-04-21T04:37:12.000Z,1.9735
2024-04-21T04:38:14.349Z,1.9716
2024-04-21T04:39:16.638Z,1.9704
2024-04-21T04:40:19.295Z,1.9734
2024-04-21T04:41:19.890Z,1.9711
2024-04-21T04:42:22.154Z,1.9722
2024-04-21T04:43:22.271Z,1.9776
2024-04-21T04:44:22.614Z,1.9806
2024-04-21T04:45:23.402Z,1.9895
2024-04-21T04:46:26.254Z,1.9872
2024-04-21T04:47:28.639Z,1.9924
2024-04-21T04:48:31.497Z,1.9950
2024-04-21T04:49:29.420Z,1.9989
2024-04-21T04:50:29.464Z,1.9981
2024-04-21T04:51:32.370Z,1.9985
2024-04-21T04:52:32.865Z,2.0022
2024-04-21T04:53:35.472Z,2.0188
2024-04-21T04:54:35.477Z,2.0334
2024-04-21T04:55:35.556Z,2.0460
2024-04-21T04:56:35.592Z,2.0559
2024-04-21T04:57:38.950Z,2.0704
2024-04-21T04:58:38.481Z,2.0850
2024-04-21T04:59:41.320Z,2.1200
2024-04-21T05:00:43.744Z,2.1219
2024-04-21T05:01:46.247Z,2.1258
2024-04-21T05:02:46.382Z,2.1346
2024-04-21T05:03:48.898Z,2.1626
2024-04-21T05:04:51.870Z,2.1787
2024-04-21T05:05:51.749Z,2.1870
2024-04-21T05:06:53.557Z,2.1899
2024-04-21T05:07:54.454Z,2.1858
2024-04-21T05:08:54.577Z,2.1828
2024-04-21T05:09:55.945Z,2.2074
2024-04-21T05:10:58.530Z,2.1997
2024-04-21T05:11:58.569Z,2.1986
2024-04-21T05:13:01.150Z,2.2015
2024-04-21T05:14:04.512Z,2.2061
2024-04-21T05:15:05.001Z,2.2123
2024-04-21T05:16:05.178Z,2.2286
2024-04-21T05:17:05.572Z,2.2348
2024-04-21T05:18:06.319Z,2.2340
2024-04-21T05:19:07.356Z,2.2248
2024-04-21T05:20:07.684Z,2.2152
2024-04-21T05:21:10.571Z,2.2305
2024-04-21T05:22:12.898Z,2.2368
2024-04-21T05:23:15.463Z,2.2503
2024-04-21T05:24:17.807Z,2.2633
2024-04-21T05:25:17.909Z,2.2795
2024-04-21T05:26:18.416Z,2.2662
2024-04-21T05:27:18.794Z,2.2647
2024-04-21T05:28:32.694Z,2.2711
2024-04-21T05:29:23.322Z,2.2716
2024-04-21T05:30:25.342Z,2.2717
2024-04-21T05:31:25.444Z,2.2617
2024-04-21T05:32:27.524Z,2.2719
2024-04-21T05:33:29.455Z,2.2871
2024-04-21T05:34:31.416Z,2.2934
2024-04-21T05:35:31.415Z,2.3034
2024-04-21T05:36:33.305Z,2.3098
2024-04-21T05:37:35.286Z,2.3368
2024-04-21T05:38:37.217Z,2.3368
2024-04-21T05:39:39.180Z,2.3275
2024-04-21T05:40:41.120Z,2.3349
2024-04-21T05:41:43.054Z,2.3443
2024-04-21T05:42:44.972Z,2.3531
2024-04-21T05:43:46.837Z,2.3416
2024-04-21T05:44:51.846Z,2.3443
2024-04-21T05:45:51.752Z,2.3590
2024-04-21T05:46:53.683Z,2.3655
2024-04-21T05:47:55.660Z,2.3906
2024-04-21T05:48:57.691Z,2.4189
2024-04-21T05:49:59.652Z,2.4448
2024-04-21T05:51:01.558Z,2.4756
2024-04-21T05:52:03.609Z,2.4826
2024-04-21T05:53:06.514Z,2.5006
2024-04-21T05:54:07.679Z,2.5170
2024-04-21T05:55:09.725Z,2.5369
2024-04-21T05:56:09.821Z,2.5419
2024-04-21T05:57:11.825Z,2.5271
2024-04-21T05:58:13.846Z,2.5439
2024-04-21T05:59:15.879Z,2.5472
2024-04-21T06:00:17.908Z,2.5635
2024-04-21T06:01:20.073Z,2.5758
2024-04-21T06:02:22.258Z,2.5962
2024-04-21T06:03:24.291Z,2.6154
2024-04-21T06:04:26.450Z,2.6332
2024-04-21T06:05:28.618Z,2.6528
2024-04-21T06:06:30.584Z,2.6609
2024-04-21T06:07:32.594Z,2.6684
2024-04-21T06:08:34.613Z,2.6918
2024-04-21T06:09:36.673Z,2.7147
2024-04-21T06:10:38.743Z,2.7531
2024-04-21T06:11:40.748Z,2.7751
2024-04-21T06:12:42.783Z,2.7998
2024-04-21T06:13:44.750Z,2.8247
2024-04-21T06:14:46.694Z,2.8454
2024-04-21T06:15:48.829Z,2.8449
2024-04-21T06:16:50.876Z,2.8185
2024-04-21T06:17:52.939Z,2.8030
2024-04-21T06:18:55.144Z,2.8116
2024-04-21T06:19:57.320Z,2.8339
2024-04-21T06:20:59.384Z,2.8604
2024-04-21T06:22:02.014Z,2.8585
2024-04-21T06:23:04.062Z,2.8654
2024-04-21T06:24:06.063Z,2.8786
2024-04-21T06:25:08.185Z,2.8899
2024-04-21T06:26:10.435Z,2.8869
2024-04-21T06:27:12.428Z,2.9076
2024-04-21T06:28:14.463Z,2.9140
2024-04-21T06:29:16.442Z,2.9124
2024-04-21T06:30:19.521Z,2.9533
2024-04-21T06:31:21.591Z,2.9698
2024-04-21T06:32:21.700Z,2.9670
2024-04-21T06:33:23.753Z,2.9716
2024-04-21T06:34:25.811Z,2.9634
2024-04-21T06:35:27.791Z,2.9806
2024-04-21T06:36:29.787Z,3.0212
2024-04-21T06:37:31.716Z,3.0355
2024-04-21T06:38:34.133Z,3.0205
2024-04-21T06:39:36.198Z,3.0180
2024-04-21T06:40:38.253Z,3.0208
2024-04-21T06:41:40.621Z,3.0172
2024-04-21T06:42:42.686Z,3.0293
2024-04-21T06:43:44.697Z,3.0728
2024-04-21T06:44:46.665Z,3.0875
2024-04-21T06:45:48.664Z,3.0823
2024-04-21T06:46:50.790Z,3.0977
2024-04-21T06:47:52.822Z,3.1604
2024-04-21T06:48:55.336Z,3.1921
2024-04-21T06:49:57.457Z,3.2063
2024-04-21T06:50:59.462Z,3.1898
2024-04-21T06:52:01.507Z,3.1994
2024-04-21T06:53:03.720Z,3.2069
2024-04-21T06:54:05.638Z,3.2409
2024-04-21T06:55:08.550Z,3.2783
2024-04-21T06:56:10.489Z,3.2970
2024-04-21T06:57:12.653Z,3.3076
2024-04-21T06:58:14.751Z,3.3214
2024-04-21T06:59:16.721Z,3.3611
2024-04-21T07:00:19.509Z,3.3804
2024-04-21T07:01:21.523Z,3.3373
2024-04-21T07:02:23.779Z,3.3609
2024-04-21T07:03:25.934Z,3.3759
2024-04-21T07:04:27.891Z,3.3800
2024-04-21T07:05:29.909Z,3.3569
2024-04-21T07:06:31.916Z,3.3668
2024-04-21T07:07:33.875Z,3.3230
2024-04-21T07:08:35.854Z,3.3388
2024-04-21T07:09:37.808Z,3.3318
2024-04-21T07:10:39.751Z,3.3795
2024-04-21T07:11:41.732Z,3.4414
2024-04-21T07:12:43.713Z,3.4820
2024-04-21T07:13:45.771Z,3.4785
2024-04-21T07:14:47.764Z,3.4778
2024-04-21T07:15:49.732Z,3.5232
2024-04-21T07:16:51.736Z,3.5662
2024-04-21T07:17:53.767Z,3.6044
2024-04-21T07:18:56.190Z,3.6528
2024-04-21T07:19:56.207Z,3.6646
2024-04-21T07:20:58.183Z,3.6959
2024-04-21T07:22:00.273Z,3.7153
2024-04-21T07:23:02.392Z,3.7086
2024-04-21T07:24:04.296Z,3.7410
2024-04-21T07:25:13.299Z,3.7766
2024-04-21T07:26:08.149Z,3.8450
2024-04-21T07:27:10.146Z,3.8340
2024-04-21T07:28:12.298Z,3.9005
2024-04-21T07:29:14.281Z,3.9803
2024-04-21T07:30:17.036Z,3.9570
2024-04-21T07:31:19.003Z,3.9061
2024-04-21T07:32:20.946Z,3.9459
2024-04-21T07:33:22.902Z,3.9052
2024-04-21T07:34:25.411Z,3.9230
2024-04-21T07:35:27.261Z,3.9296
2024-04-21T07:36:29.201Z,3.9254
2024-04-21T07:37:30.270Z,3.8870
2024-04-21T07:38:32.253Z,3.8335
2024-04-21T07:39:34.183Z,3.8392
2024-04-21T07:40:36.100Z,3.8221
2024-04-21T07:41:38.092Z,3.8674
2024-04-21T07:42:40.060Z,3.8626
2024-04-21T07:43:41.982Z,3.8427
2024-04-21T07:44:44.008Z,3.8347
2024-04-21T07:45:45.972Z,3.8551
2024-04-21T07:46:47.861Z,3.8360
2024-04-21T07:47:49.935Z,3.7647
2024-04-21T07:48:52.064Z,3.7537
2024-04-21T07:49:53.987Z,3.7640
2024-04-21T07:50:55.956Z,3.7219
2024-04-21T07:51:57.928Z,3.7153
2024-04-21T07:52:59.937Z,3.7254
2024-04-21T07:54:01.980Z,3.7147
2024-04-21T07:55:04.066Z,3.7277
2024-04-21T07:56:06.074Z,3.7391
2024-04-21T07:57:08.023Z,3.7720
2024-04-21T07:58:09.987Z,3.7800
2024-04-21T07:59:11.998Z,3.7666
2024-04-21T08:00:13.967Z,3.7228
2024-04-21T08:01:16.060Z,3.7125
2024-04-21T08:02:18.173Z,3.7400
2024-04-21T08:03:20.254Z,3.7158
2024-04-21T08:04:22.236Z,3.6610
2024-04-21T08:05:24.582Z,3.6380
2024-04-21T08:06:26.617Z,3.5982
2024-04-21T08:07:28.627Z,3.5660
2024-04-21T08:08:30.651Z,3.5349
2024-04-21T08:09:32.702Z,3.5653
2024-04-21T08:10:42.598Z,3.5526
2024-04-21T08:11:36.932Z,3.5338
2024-04-21T08:12:39.670Z,3.4834
2024-04-21T08:13:41.643Z,3.4367
2024-04-21T08:14:43.679Z,3.4342
2024-04-21T08:15:45.678Z,3.4320
2024-04-21T08:16:47.588Z,3.3577
2024-04-21T08:17:49.600Z,3.3218
2024-04-21T08:18:51.877Z,3.3080
2024-04-21T08:19:54.032Z,3.3426
2024-04-21T08:20:56.032Z,3.3466
2024-04-21T08:21:58.015Z,3.3153
2024-04-21T08:23:00.014Z,3.3533
2024-04-21T08:24:02.028Z,3.3515
2024-04-21T08:25:04.211Z,3.3285
2024-04-21T08:26:06.406Z,3.3383
2024-04-21T08:27:08.380Z,3.3604
2024-04-21T08:28:11.009Z,3.3996
2024-04-21T08:29:12.955Z,3.4166
2024-04-21T08:30:15.001Z,3.4258
2024-04-21T08:31:17.042Z,3.4094
2024-04-21T08:32:19.017Z,3.3401
2024-04-21T08:33:20.981Z,3.3454
2024-04-21T08:34:23.093Z,3.3617
2024-04-21T08:35:25.124Z,3.3646
2024-04-21T08:36:27.219Z,3.3302
2024-04-21T08:37:29.212Z,3.3125
2024-04-21T08:38:31.402Z,3.3069
2024-04-21T08:39:33.339Z,3.3359
2024-04-21T08:40:35.333Z,3.3800
2024-04-21T08:41:37.394Z,3.4324
2024-04-21T08:42:39.360Z,3.3993
2024-04-21T08:43:41.348Z,3.4203
2024-04-21T08:44:43.278Z,3.4953
2024-04-21T08:45:45.306Z,3.5434
2024-04-21T08:46:49.011Z,3.5265
2024-04-21T08:47:49.039Z,3.5828
2024-04-21T08:48:51.019Z,3.5463
2024-04-21T08:49:53.506Z,3.5368
2024-04-21T08:50:55.464Z,3.5199
2024-04-21T08:51:57.440Z,3.5449
2024-04-21T08:52:59.393Z,3.5247
2024-04-21T08:54:01.326Z,3.4867
2024-04-21T08:55:03.345Z,3.4830
2024-04-21T08:56:05.438Z,3.4669
2024-04-21T08:57:07.373Z,3.4783
2024-04-21T08:58:09.416Z,3.4773
2024-04-21T08:59:11.316Z,3.4805
2024-04-21T09:00:13.324Z,3.4960
2024-04-21T09:01:15.669Z,3.4859
2024-04-21T09:02:17.777Z,3.4342
2024-04-21T09:03:19.850Z,3.3598
2024-04-21T09:04:22.042Z,3.3051
2024-04-21T09:05:24.159Z,3.2601
2024-04-21T09:06:26.222Z,3.1751
2024-04-21T09:07:28.207Z,3.0893
2024-04-21T09:08:30.561Z,3.0145
2024-04-21T09:09:32.618Z,2.9217
2024-04-21T09:10:34.719Z,2.6917
2024-04-21T09:11:36.798Z,2.2960
2024-04-21T09:12:39.291Z,1.9343
2024-04-21T09:13:41.332Z,1.5927
2024-04-21T09:14:43.362Z,1.4149
2024-04-21T09:15:45.362Z,1.3113
2024-04-21T09:16:47.357Z,1.2622
2024-04-21T09:17:49.449Z,1.2060
2024-04-21T09:18:51.709Z,1.1784
2024-04-21T09:19:53.809Z,1.1521
2024-04-21T09:20:55.785Z,1.1372
2024-04-21T09:21:57.935Z,1.1521
2024-04-21T09:22:59.915Z,1.1102
2024-04-21T09:24:01.987Z,1.0824
2024-04-21T09:25:03.986Z,1.0549
2024-04-21T09:26:05.957Z,1.0463
2024-04-21T09:27:07.930Z,1.0777
2024-04-21T09:28:09.902Z,1.1180
2024-04-21T09:29:11.924Z,1.0979
2024-04-21T09:30:13.932Z,1.0698
2024-04-21T09:31:15.899Z,1.0889
2024-04-21T09:32:17.920Z,1.1386
2024-04-21T09:33:20.062Z,1.1468
2024-04-21T09:34:22.163Z,1.1161
2024-04-21T09:35:24.274Z,1.0786
2024-04-21T09:36:26.258Z,1.1181
2024-04-21T09:37:28.218Z,1.1320
2024-04-21T09:38:30.256Z,1.1568
2024-04-21T09:39:32.286Z,1.1799
2024-04-21T09:40:34.329Z,1.1270
2024-04-21T09:41:36.222Z,1.1330
2024-04-21T09:42:38.161Z,1.1378
2024-04-21T09:43:41.061Z,1.1416
2024-04-21T09:44:42.984Z,1.1554
2024-04-21T09:45:44.921Z,1.1938
2024-04-21T09:46:46.821Z,1.2395
2024-04-21T09:47:48.922Z,1.2481
2024-04-21T09:48:51.010Z,1.2992
2024-04-21T09:49:52.980Z,1.3567
2024-04-21T09:50:54.904Z,1.4065
2024-04-21T09:51:56.869Z,1.4314
2024-04-21T09:52:58.879Z,1.4717
2024-04-21T09:54:00.779Z,1.4959
2024-04-21T09:55:02.957Z,1.5067
2024-04-21T09:56:06.647Z,1.5719
2024-04-21T09:57:07.083Z,1.6095
2024-04-21T09:58:09.144Z,1.6016
2024-04-21T09:59:11.060Z,1.6334
2024-04-21T10:00:13.016Z,1.6742
2024-04-21T10:01:15.129Z,1.6222
2024-04-21T10:02:18.055Z,1.6842
2024-04-21T10:03:17.285Z,1.7585
2024-04-21T10:04:19.406Z,1.6047
2024-04-21T10:05:22.007Z,1.6257
2024-04-21T10:06:23.991Z,1.6449
2024-04-21T10:07:26.133Z,1.6616
2024-04-21T10:08:28.280Z,1.6632
2024-04-21T10:09:30.315Z,1.6821
2024-04-21T10:10:32.385Z,1.6110
2024-04-21T10:11:34.365Z,1.6392
2024-04-21T10:12:36.308Z,1.6864
2024-04-21T10:13:38.408Z,1.7155
2024-04-21T10:14:40.414Z,1.8011
2024-04-21T10:15:42.362Z,1.8387
2024-04-21T10:16:44.297Z,1.9347
2024-04-21T10:17:46.386Z,1.8461
2024-04-21T10:18:48.323Z,1.8153
2024-04-21T10:19:50.256Z,1.9076
2024-04-21T10:20:52.219Z,1.9151
2024-04-21T10:21:54.209Z,1.9340
2024-04-21T10:22:56.203Z,1.9694
2024-04-21T10:23:58.203Z,1.9608
2024-04-21T10:25:00.244Z,2.0824
2024-04-21T10:26:02.302Z,2.1445
2024-04-21T10:27:04.255Z,2.0965
2024-04-21T10:28:06.311Z,2.1105
2024-04-21T10:29:08.346Z,2.0270
2024-04-21T10:30:10.303Z,1.9453
2024-04-21T10:31:12.370Z,2.0292
2024-04-21T10:32:14.339Z,2.0536
2024-04-21T10:33:16.414Z,2.1068
2024-04-21T10:34:18.504Z,2.0473
2024-04-21T10:35:20.583Z,2.0648
2024-04-21T10:36:22.506Z,2.1683
2024-04-21T10:37:24.481Z,2.3138
2024-04-21T10:38:26.423Z,2.2354
2024-04-21T10:39:28.398Z,2.1014
2024-04-21T10:40:30.399Z,2.1537
2024-04-21T10:41:32.297Z,2.1569
2024-04-21T10:42:33.562Z,2.1570
2024-04-21T10:43:35.433Z,2.3152
2024-04-21T10:44:37.301Z,2.3707
2024-04-21T10:45:39.153Z,2.4102
2024-04-21T10:46:42.118Z,2.3636
2024-04-21T10:47:45.006Z,2.3092
2024-04-21T10:48:44.077Z,2.1917
2024-04-21T10:49:45.992Z,2.2326
2024-04-21T10:50:47.841Z,2.2815
2024-04-21T10:51:49.674Z,2.4053
2024-04-21T10:52:51.543Z,2.5405
2024-04-21T10:53:53.410Z,2.6900
2024-04-21T10:54:55.277Z,2.8668
2024-04-21T10:55:57.090Z,2.9533
2024-04-21T10:56:58.961Z,2.9737
2024-04-21T10:58:00.817Z,2.7619
2024-04-21T10:59:02.697Z,2.7443
2024-04-21T11:00:04.570Z,2.8178
2024-04-21T11:01:06.528Z,2.9379
2024-04-21T11:02:09.418Z,3.0259
2024-04-21T11:03:12.373Z,3.0753
2024-04-21T11:04:14.860Z,2.9152
2024-04-21T11:05:15.950Z,2.7978
2024-04-21T11:06:17.899Z,2.9131
2024-04-21T11:07:19.890Z,2.8759
2024-04-21T11:08:21.905Z,2.9024
2024-04-21T11:09:21.964Z,2.8575
2024-04-21T11:10:22.899Z,2.7663
2024-04-21T11:11:24.983Z,2.8003
2024-04-21T11:12:26.943Z,2.7864
2024-04-21T11:13:29.035Z,2.8110
2024-04-21T11:14:31.076Z,2.7671
2024-04-21T11:15:33.018Z,2.6593
2024-04-21T11:16:35.027Z,2.8344
2024-04-21T11:17:37.796Z,2.7658
2024-04-21T11:18:39.917Z,2.8634
2024-04-21T11:19:42.579Z,2.9437
2024-04-21T11:20:44.514Z,2.9741
2024-04-21T11:21:46.436Z,2.9964
2024-04-21T11:22:48.510Z,2.9779
2024-04-21T11:23:50.422Z,2.9543
2024-04-21T11:24:52.420Z,2.9712
2024-04-21T11:25:56.302Z,3.0350
2024-04-21T11:26:55.779Z,3.0472
2024-04-21T11:27:57.805Z,3.0471
2024-04-21T11:28:59.799Z,3.0803
2024-04-21T11:30:01.829Z,3.1946
2024-04-21T11:31:03.799Z,3.3048
2024-04-21T11:32:05.898Z,3.4520
2024-04-21T11:33:07.860Z,3.4971
2024-04-21T11:34:09.893Z,3.5581
2024-04-21T11:35:12.077Z,3.4810
2024-04-21T11:36:13.999Z,3.5270
2024-04-21T11:37:16.011Z,3.4291
2024-04-21T11:38:17.948Z,3.4969
2024-04-21T11:39:19.888Z,3.6112
2024-04-21T11:40:21.954Z,3.5459
2024-04-21T11:41:23.955Z,3.5368
2024-04-21T11:42:25.971Z,3.4334
2024-04-21T11:43:27.921Z,3.3825
2024-04-21T11:44:29.857Z,3.2930
2024-04-21T11:45:31.845Z,3.2478
2024-04-21T11:46:33.846Z,3.2292
2024-04-21T11:47:35.854Z,3.2879
2024-04-21T11:48:37.943Z,3.3749
2024-04-21T11:49:40.098Z,3.3023
2024-04-21T11:50:42.049Z,3.3956
2024-04-21T11:51:43.978Z,3.5070
2024-04-21T11:52:46.543Z,3.7083
2024-04-21T11:53:48.539Z,3.7708
2024-04-21T11:54:50.487Z,3.7107
2024-04-21T11:55:52.440Z,3.6464
2024-04-21T11:56:54.316Z,3.6578
2024-04-21T11:57:56.322Z,3.6778
2024-04-21T11:58:58.278Z,3.7537
2024-04-21T12:00:02.503Z,3.8979
2024-04-21T12:01:02.302Z,3.7648
2024-04-21T12:02:04.318Z,3.7639
2024-04-21T12:03:05.338Z,3.8812
2024-04-21T12:04:07.369Z,3.8596
2024-04-21T12:05:09.374Z,3.8703
2024-04-21T12:06:11.479Z,3.9988
2024-04-21T12:07:13.430Z,4.0000
2024-04-21T12:08:15.425Z,3.8829
2024-04-21T12:09:17.422Z,3.8942
2024-04-21T12:10:19.519Z,3.8496
2024-04-21T12:11:21.575Z,3.9530
2024-04-21T12:12:23.616Z,3.9398
2024-04-21T12:13:25.585Z,3.9246
2024-04-21T12:14:27.978Z,3.9813
2024-04-21T12:15:30.036Z,4.0326
2024-04-21T12:16:32.054Z,4.0197
2024-04-21T12:17:32.075Z,4.0852
2024-04-21T12:18:34.008Z,4.0277
2024-04-21T12:19:35.975Z,3.8950
2024-04-21T12:20:37.935Z,3.8986
2024-04-21T12:21:40.071Z,4.0878
2024-04-21T12:22:41.990Z,4.1903
2024-04-21T12:23:44.186Z,4.0194
2024-04-21T12:24:46.049Z,4.0433
2024-04-21T12:25:46.193Z,4.0837
2024-04-21T12:26:48.180Z,4.1517
2024-04-21T12:27:50.178Z,4.0309
2024-04-21T12:28:52.074Z,4.1142
2024-04-21T12:29:53.997Z,4.0766
2024-04-21T12:30:55.999Z,4.1618
2024-04-21T12:31:58.016Z,4.1278
2024-04-21T12:32:59.990Z,4.1029
2024-04-21T12:34:02.037Z,4.1694
2024-04-21T12:35:04.094Z,4.3083
2024-04-21T12:36:06.033Z,4.4106
2024-04-21T12:37:07.999Z,4.4770
2024-04-21T12:38:09.996Z,4.5051
2024-04-21T12:39:11.898Z,4.4092
2024-04-21T12:40:13.864Z,4.4321
2024-04-21T12:41:15.832Z,4.3904
2024-04-21T12:42:17.904Z,4.1822
2024-04-21T12:43:19.908Z,4.1370
2024-04-21T12:44:21.857Z,4.1437
2024-04-21T12:45:23.853Z,4.0495
2024-04-21T12:46:25.928Z,4.0042
2024-04-21T12:47:27.906Z,3.9815
2024-04-21T12:48:29.874Z,3.9096
2024-04-21T12:49:31.832Z,3.9301
2024-04-21T12:50:33.729Z,3.9296
2024-04-21T12:51:35.683Z,3.9161
2024-04-21T12:52:37.648Z,3.9750
2024-04-21T12:53:39.565Z,3.8354